Time;durP1;ratioP1;P1;durP2;ratioP2;P2;SDS_P1;SDS_P2;PMS_P1;PMS_P2;Temp;Humidity;BMP_temperature;BMP_pressure;BME280_temperature;BME280_humidity;BME280_pressure;Samples;Min_cycle;Max_cycle;Signal;HPM_P1;HPM_P2
2022/09/08 00:00:26;;;;;;;;;0.67;0.67;;;;;20.85;60.30;100414.09;2104662;28;47390;-62
2022/09/08 00:01:27;;;;;;;;;1.00;1.00;;;;;20.85;60.07;100409.56;2086995;28;47322;-60
2022/09/08 00:02:27;;;;;;;;;1.33;1.33;;;;;20.86;60.60;100402.34;2087604;28;47674;-62
2022/09/08 00:03:29;;;;;;;;;1.00;1.00;;;;;20.86;60.41;100402.34;2105792;27;45437;-60
2022/09/08 00:04:31;;;;;;;;;0.00;0.00;;;;;20.86;60.66;100394.25;2100898;28;47880;-60
2022/09/08 00:05:37;;;;;;;;;1.75;0.50;;;;;20.86;60.63;100397.81;2103546;28;47844;-60
2022/09/08 00:06:37;;;;;;;;;1.00;0.00;;;;;20.86;60.62;100397.81;2100311;28;47959;-60
2022/09/08 00:07:38;;;;;;;;;0.00;0.00;;;;;20.85;59.94;100400.63;2102342;27;47353;-61
2022/09/08 00:08:39;;;;;;;;;0.00;0.00;;;;;20.84;59.92;100398.91;2104446;28;47207;-60
2022/09/08 00:09:39;;;;;;;;;1.00;1.00;;;;;20.84;60.10;100404.28;2104287;28;46197;-61
2022/09/08 00:10:41;;;;;;;;;0.00;0.00;;;;;20.85;60.21;100393.41;2105191;28;47156;-62
2022/09/08 00:11:41;;;;;;;;;0.00;0.00;;;;;20.88;60.17;100395.00;2104330;28;48028;-61
2022/09/08 00:12:42;;;;;;;;;0.00;0.00;;;;;20.89;60.17;100393.16;2088580;28;47571;-61
2022/09/08 00:13:44;;;;;;;;;0.00;0.00;;;;;20.89;60.34;100391.34;2092334;28;47590;-60
2022/09/08 00:14:45;;;;;;;;;1.25;0.50;;;;;20.90;59.70;100403.00;2105033;28;47987;-60
2022/09/08 00:15:46;;;;;;;;;0.75;0.50;;;;;20.88;60.21;100399.53;2104173;27;47425;-60
2022/09/08 00:16:47;;;;;;;;;0.00;0.00;;;;;20.86;59.90;100395.13;2096358;28;47543;-63
2022/09/08 00:17:47;;;;;;;;;1.00;0.00;;;;;20.88;59.94;100404.94;2095349;28;47524;-62
2022/09/08 00:18:50;;;;;;;;;0.00;0.00;;;;;20.88;60.34;100396.84;2105528;27;47571;-61
2022/09/08 00:19:51;;;;;;;;;0.75;0.75;;;;;20.84;60.05;100397.06;2103964;28;47938;-62
2022/09/08 00:20:51;;;;;;;;;1.00;1.00;;;;;20.84;59.91;100399.75;2105235;28;47854;-62
2022/09/08 00:21:52;;;;;;;;;1.67;0.67;;;;;20.85;60.00;100403.31;2104115;28;47734;-63
2022/09/08 00:22:53;;;;;;;;;0.25;0.25;;;;;20.85;60.16;100406.00;2105276;28;47367;-62
2022/09/08 00:23:53;;;;;;;;;0.00;0.00;;;;;20.86;60.43;100405.03;2094069;28;47246;-60
2022/09/08 00:24:53;;;;;;;;;0.00;0.00;;;;;20.84;60.57;100402.47;2092902;28;47484;-62
2022/09/08 00:25:54;;;;;;;;;1.00;0.33;;;;;20.82;60.17;100398.97;2103415;27;47464;-61
2022/09/08 00:26:54;;;;;;;;;0.00;0.00;;;;;20.82;59.98;100404.38;2097985;28;47334;-61
2022/09/08 00:27:54;;;;;;;;;0.00;0.00;;;;;20.79;59.93;100407.28;2101126;27;47266;-60
2022/09/08 00:28:55;;;;;;;;;1.00;1.00;;;;;20.77;60.42;100408.38;2104175;28;47841;-61
2022/09/08 00:29:55;;;;;;;;;0.67;0.33;;;;;20.77;60.68;100416.47;2100298;27;47803;-62
2022/09/08 00:30:56;;;;;;;;;1.33;1.33;;;;;20.76;60.70;100414.72;2105200;28;47359;-61
2022/09/08 00:31:56;;;;;;;;;0.33;0.33;;;;;20.78;60.65;100413.66;2102856;27;47643;-61
2022/09/08 00:32:57;;;;;;;;;0.00;0.00;;;;;20.80;60.29;100410.84;2090980;28;47604;-61
2022/09/08 00:33:57;;;;;;;;;0.75;0.75;;;;;20.80;60.21;100405.44;2092428;28;47777;-61
2022/09/08 00:35:00;;;;;;;;;0.00;0.00;;;;;20.81;60.12;100409.88;2099653;28;48181;-63
2022/09/08 00:36:03;;;;;;;;;0.75;0.00;;;;;20.80;60.49;100413.53;2103217;27;47937;-62
2022/09/08 00:37:04;;;;;;;;;0.00;0.00;;;;;20.80;60.43;100405.44;2102610;28;47393;-62
2022/09/08 00:38:04;;;;;;;;;1.00;0.00;;;;;20.79;60.59;100407.28;2103572;27;47692;-63
2022/09/08 00:39:04;;;;;;;;;1.00;0.33;;;;;20.80;59.96;100402.75;2104202;27;47716;-61
2022/09/08 00:40:06;;;;;;;;;0.00;0.00;;;;;20.79;60.34;100401.03;2104098;28;47725;-61
2022/09/08 00:41:10;;;;;;;;;0.50;0.00;;;;;20.77;60.47;100403.84;2104125;28;48210;-63
2022/09/08 00:42:11;;;;;;;;;0.00;0.00;;;;;20.79;60.47;100406.41;2104565;28;48145;-62
2022/09/08 00:43:30;;;;;;;;;1.33;1.33;;;;;20.78;60.40;100410.97;2104101;27;47492;-61
2022/09/08 00:44:39;;;;;;;;;1.00;0.00;;;;;20.78;60.83;100402.00;2098893;28;47986;-61
2022/09/08 00:45:47;;;;;;;;;0.50;0.00;;;;;20.78;60.70;100405.56;2103693;27;47998;-59
2022/09/08 00:46:49;;;;;;;;;0.00;0.00;;;;;20.78;60.56;100410.09;2104255;28;47983;-62
2022/09/08 00:47:58;;;;;;;;;0.50;0.50;;;;;20.78;60.71;100405.56;2102904;28;47687;-60
2022/09/08 00:49:17;;;;;;;;;1.25;0.00;;;;;20.77;60.34;100408.38;2105432;28;48153;-61
2022/09/08 00:50:22;;;;;;;;;1.25;0.00;;;;;20.77;60.60;100401.13;2091738;28;47430;-61
2022/09/08 00:51:25;;;;;;;;;0.25;0.25;;;;;20.77;60.83;100403.84;2092754;28;47709;-61
2022/09/08 00:52:30;;;;;;;;;1.00;0.00;;;;;20.78;60.75;100397.47;2100079;28;47695;-62
2022/09/08 00:53:31;;;;;;;;;0.25;0.25;;;;;20.80;60.65;100402.75;2104148;28;47686;-61
2022/09/08 00:54:31;;;;;;;;;1.00;1.00;;;;;20.81;60.49;100402.63;2098336;28;47956;-62
2022/09/08 00:55:36;;;;;;;;;0.33;0.33;;;;;20.81;60.29;100404.47;2103590;27;47477;-60
2022/09/08 00:56:39;;;;;;;;;0.00;0.00;;;;;20.79;59.88;100399.19;2104783;28;47734;-61
2022/09/08 00:57:40;;;;;;;;;0.00;0.00;;;;;20.78;60.52;100393.91;2104333;28;47287;-61
2022/09/08 00:58:41;;;;;;;;;2.33;2.00;;;;;20.78;60.67;100393.91;2095796;28;46824;-60
2022/09/08 00:59:42;;;;;;;;;0.25;0.25;;;;;20.78;60.82;100393.91;2093716;28;47862;-61
2022/09/08 01:00:43;;;;;;;;;0.50;0.50;;;;;20.80;60.43;100389.28;2105038;27;47428;-61
2022/09/08 01:01:43;;;;;;;;;0.33;0.33;;;;;20.81;60.25;100399.09;2104120;27;47265;-61
2022/09/08 01:02:45;;;;;;;;;0.00;0.00;;;;;20.82;60.15;100398.09;2104730;28;47953;-62
2022/09/08 01:03:46;;;;;;;;;0.00;0.00;;;;;20.83;60.71;100399.84;2105409;27;47398;-61
2022/09/08 01:04:46;;;;;;;;;0.00;0.00;;;;;20.83;60.70;100394.44;2100900;28;47111;-61
2022/09/08 01:06:15;;;;;;;;;0.67;0.67;;;;;20.83;60.16;100402.53;2103674;28;47984;-60
2022/09/08 01:13:14;;;;;;;;;0.00;0.00;;;;;20.84;60.20;100405.16;2103450;28;47564;-61
2022/09/08 01:14:14;;;;;;;;;0.00;0.00;;;;;20.83;60.08;100398.03;2104679;28;47923;-61
2022/09/08 01:15:18;;;;;;;;;0.33;0.33;;;;;20.83;59.83;100405.22;2103572;27;47473;-62
2022/09/08 01:16:18;;;;;;;;;1.00;1.00;;;;;20.84;60.00;100398.91;2100949;28;48188;-62
2022/09/08 01:17:22;;;;;;;;;0.00;0.00;;;;;20.83;59.59;100398.03;2103031;27;47825;-62
2022/09/08 01:18:23;;;;;;;;;1.00;0.00;;;;;20.81;59.77;100402.63;2100268;28;47684;-61
2022/09/08 01:19:31;;;;;;;;;0.00;0.00;;;;;20.83;59.93;100402.53;2098690;27;47632;-63
2022/09/08 01:20:53;;;;;;;;;0.00;0.00;;;;;20.85;60.38;100396.09;2077864;28;47776;-62
2022/09/08 01:22:30;;;;;;;;;0.25;0.25;;;;;20.88;60.16;100402.22;2089233;28;48108;-63
2022/09/08 01:23:47;;;;;;;;;1.00;0.00;;;;;20.86;60.10;100400.50;2101395;28;47906;-62
2022/09/08 01:25:00;;;;;;;;;0.75;0.00;;;;;20.86;60.33;100405.91;2102900;28;47564;-60
2022/09/08 01:26:21;;;;;;;;;0.00;0.00;;;;;20.85;60.07;100404.19;2103503;28;48389;-60
2022/09/08 01:27:29;;;;;;;;;1.00;1.00;;;;;20.85;59.97;100404.19;2089561;28;47376;-62
2022/09/08 01:28:40;;;;;;;;;1.00;0.00;;;;;20.85;60.23;100408.72;2090702;28;47925;-62
2022/09/08 01:29:43;;;;;;;;;0.00;0.00;;;;;20.84;60.38;100398.91;2100415;28;48068;-62
2022/09/08 01:30:46;;;;;;;;;0.75;0.00;;;;;20.83;60.10;100402.53;2104679;28;47630;-62
2022/09/08 01:31:50;;;;;;;;;0.00;0.00;;;;;20.82;60.44;100407.06;2103476;27;47816;-63
2022/09/08 01:32:51;;;;;;;;;0.00;0.00;;;;;20.83;60.09;100413.31;2105019;28;47620;-62
2022/09/08 01:33:52;;;;;;;;;0.00;0.00;;;;;20.83;60.74;100408.81;2103637;28;47607;-62
2022/09/08 01:34:52;;;;;;;;;0.00;0.00;;;;;20.84;60.20;100418.63;2104787;28;47429;-62
2022/09/08 01:35:52;;;;;;;;;0.33;0.33;;;;;20.85;59.93;100420.38;2085594;28;47713;-62
2022/09/08 01:36:58;;;;;;;;;0.00;0.00;;;;;20.86;60.02;100411.31;2092355;28;47397;-62
2022/09/08 01:37:59;;;;;;;;;0.50;0.50;;;;;20.88;60.08;100413.88;2102766;27;47228;-62
2022/09/08 01:39:00;;;;;;;;;2.67;1.00;;;;;20.90;59.83;100417.34;2105208;28;47115;-62
2022/09/08 01:40:02;;;;;;;;;0.00;0.00;;;;;20.92;60.02;100417.22;2102628;28;47704;-60
2022/09/08 01:41:02;;;;;;;;;0.50;0.50;;;;;20.93;59.97;100424.34;2084513;28;47659;-60
2022/09/08 01:42:03;;;;;;;;;0.00;0.00;;;;;20.94;60.14;100426.06;2086074;28;46931;-62
2022/09/08 01:43:07;;;;;;;;;0.25;0.00;;;;;20.94;60.36;100421.53;2097377;28;47533;-62
2022/09/08 01:44:07;;;;;;;;;1.25;0.00;;;;;20.94;59.48;100423.38;2100462;28;47400;-61
2022/09/08 01:45:08;;;;;;;;;0.00;0.00;;;;;20.92;59.99;100415.38;2099701;28;47801;-62
2022/09/08 01:46:09;;;;;;;;;0.33;0.33;;;;;20.91;59.73;100423.59;2093656;28;47740;-61
2022/09/08 01:47:10;;;;;;;;;1.00;1.00;;;;;20.88;60.25;100413.88;2087413;28;47228;-61
2022/09/08 01:48:11;;;;;;;;;0.00;0.00;;;;;20.88;59.94;100413.03;2104335;27;47822;-62
2022/09/08 01:49:11;;;;;;;;;0.00;0.00;;;;;20.87;59.87;100420.25;2104160;27;47931;-62
2022/09/08 01:50:12;;;;;;;;;2.67;2.00;;;;;20.86;59.85;100413.13;2103248;28;47447;-62
2022/09/08 01:51:12;;;;;;;;;0.33;0.33;;;;;20.85;59.92;100416.81;2103858;27;47589;-62
2022/09/08 01:52:13;;;;;;;;;0.00;0.00;;;;;20.82;59.99;100417.84;2100788;28;47196;-62
2022/09/08 01:53:13;;;;;;;;;0.67;0.67;;;;;20.81;60.19;100417.97;2099719;27;47301;-61
2022/09/08 01:54:14;;;;;;;;;0.00;0.00;;;;;20.79;60.48;100423.47;2099126;28;47766;-63
2022/09/08 01:55:14;;;;;;;;;0.00;0.00;;;;;20.78;60.20;100424.44;2100346;28;47788;-61
2022/09/08 01:56:15;;;;;;;;;0.00;0.00;;;;;20.77;60.00;100417.31;2100783;28;47253;-60
2022/09/08 01:57:15;;;;;;;;;0.67;0.67;;;;;20.78;59.95;100421.75;2103205;27;47522;-62
2022/09/08 01:58:15;;;;;;;;;2.00;0.33;;;;;20.81;60.31;100431.44;2104544;28;47860;-62
2022/09/08 01:59:16;;;;;;;;;0.00;0.00;;;;;20.78;59.80;100427.13;2093860;28;47057;-61
2022/09/08 02:00:16;;;;;;;;;0.33;0.33;;;;;20.79;59.90;100436.94;2093730;28;47509;-62
2022/09/08 02:01:16;;;;;;;;;0.00;0.00;;;;;20.77;60.11;100432.63;2102516;27;47456;-61
2022/09/08 02:02:17;;;;;;;;;0.00;0.00;;;;;20.76;59.97;100434.47;2102713;28;47369;-61
2022/09/08 02:03:17;;;;;;;;;1.00;1.00;;;;;20.76;60.27;100431.78;2104558;27;47096;-61
2022/09/08 02:04:18;;;;;;;;;1.33;1.33;;;;;20.74;60.15;100433.72;2100389;28;47956;-60
2022/09/08 02:05:19;;;;;;;;;0.75;0.75;;;;;20.74;60.24;100432.84;2097730;27;47345;-61
2022/09/08 02:06:19;;;;;;;;;1.67;1.00;;;;;20.72;60.78;100432.97;2101100;28;46283;-60
2022/09/08 02:07:20;;;;;;;;;1.00;1.00;;;;;20.71;60.81;100433.94;2099203;27;47330;-62
2022/09/08 02:08:20;;;;;;;;;1.00;1.00;;;;;20.72;60.77;100442.88;2098796;28;47598;-61
2022/09/08 02:09:20;;;;;;;;;0.00;0.00;;;;;20.71;60.05;100435.75;2093719;28;47312;-62
2022/09/08 02:10:22;;;;;;;;;1.00;1.00;;;;;20.71;59.96;100435.75;2094820;28;47955;-62
2022/09/08 02:11:22;;;;;;;;;1.00;1.00;;;;;20.71;60.48;100433.03;2100175;28;47482;-63
2022/09/08 02:12:22;;;;;;;;;0.67;0.33;;;;;20.71;60.17;100428.53;2103769;28;47753;-63
2022/09/08 02:13:23;;;;;;;;;0.00;0.00;;;;;20.71;60.25;100436.63;2102788;28;47610;-61
2022/09/08 02:14:23;;;;;;;;;0.00;0.00;;;;;20.70;60.06;100425.91;2102102;28;47339;-61
2022/09/08 02:15:24;;;;;;;;;1.00;1.00;;;;;20.68;60.38;100427.88;2103162;27;47381;-62
2022/09/08 02:16:25;;;;;;;;;0.67;0.67;;;;;20.69;59.96;100429.59;2100652;28;47813;-61
2022/09/08 02:17:30;;;;;;;;;0.00;0.00;;;;;20.66;60.18;100427.97;2097880;28;47064;-61
2022/09/08 02:18:31;;;;;;;;;1.00;0.75;;;;;20.66;60.21;100432.50;2100832;28;47607;-61
2022/09/08 02:19:31;;;;;;;;;1.25;0.25;;;;;20.66;60.71;100433.38;2103665;27;46983;-61
2022/09/08 02:20:32;;;;;;;;;1.67;1.67;;;;;20.65;60.47;100431.63;2103959;28;47202;-61
2022/09/08 02:21:32;;;;;;;;;0.33;0.33;;;;;20.65;60.47;100431.63;2103191;28;48136;-62
2022/09/08 02:22:33;;;;;;;;;0.67;0.67;;;;;20.64;59.65;100429.06;2103689;28;47521;-62
2022/09/08 02:23:35;;;;;;;;;0.00;0.00;;;;;20.62;60.58;100431.00;2102319;27;47848;-60
2022/09/08 02:24:37;;;;;;;;;0.00;0.00;;;;;20.61;60.87;100426.56;2099184;28;46798;-62
2022/09/08 02:25:37;;;;;;;;;0.00;0.00;;;;;20.61;60.15;100429.28;2103211;27;47859;-62
2022/09/08 02:26:38;;;;;;;;;0.00;0.00;;;;;20.61;60.37;100434.66;2102358;28;47197;-61
2022/09/08 02:27:39;;;;;;;;;1.25;1.00;;;;;20.60;60.63;100431.09;2102901;27;47749;-62
2022/09/08 02:28:39;;;;;;;;;2.67;1.00;;;;;20.61;60.14;100424.75;2096858;28;47472;-60
2022/09/08 02:29:40;;;;;;;;;0.00;0.00;;;;;20.62;60.25;100431.00;2100141;28;47820;-61
2022/09/08 02:30:40;;;;;;;;;1.00;1.00;;;;;20.61;60.22;100426.56;2104684;28;47656;-62
2022/09/08 02:31:40;;;;;;;;;0.33;0.33;;;;;20.61;60.41;100431.97;2098752;28;47856;-61
2022/09/08 02:32:41;;;;;;;;;0.00;0.00;;;;;20.60;60.99;100417.63;2104599;28;47473;-62
2022/09/08 02:33:41;;;;;;;;;0.00;0.00;;;;;20.60;60.69;100425.72;2103088;27;47184;-61
2022/09/08 02:34:41;;;;;;;;;0.00;0.00;;;;;20.60;61.04;100414.94;2104616;28;47486;-61
2022/09/08 02:35:42;;;;;;;;;0.33;0.33;;;;;20.57;60.45;100418.66;2098603;28;47476;-63
2022/09/08 02:36:42;;;;;;;;;0.00;0.00;;;;;20.57;60.55;100415.97;2100606;28;47415;-62
2022/09/08 02:37:42;;;;;;;;;2.00;1.00;;;;;20.56;60.56;100418.78;2100751;28;47443;-59
2022/09/08 02:38:48;;;;;;;;;1.00;1.00;;;;;20.57;61.02;100418.66;2103813;28;47716;-62
2022/09/08 02:39:48;;;;;;;;;1.00;0.00;;;;;20.56;60.47;100421.47;2102232;28;48367;-60
2022/09/08 02:40:49;;;;;;;;;0.00;0.00;;;;;20.56;60.42;100416.06;2104448;28;47536;-61
2022/09/08 02:41:50;;;;;;;;;0.50;0.50;;;;;20.55;60.44;100409.81;2103418;28;47588;-60
2022/09/08 02:42:50;;;;;;;;;1.00;1.00;;;;;20.55;61.07;100411.66;2095481;28;47183;-61
2022/09/08 02:43:51;;;;;;;;;1.00;0.00;;;;;20.54;61.32;100410.78;2093500;28;48012;-60
2022/09/08 02:44:52;;;;;;;;;0.00;0.00;;;;;20.53;60.89;100410.91;2095289;28;48017;-61
2022/09/08 02:45:52;;;;;;;;;1.00;1.00;;;;;20.51;60.82;100410.16;2092246;28;47496;-60
2022/09/08 02:46:52;;;;;;;;;1.00;1.00;;;;;20.49;61.24;100407.56;2104363;28;47545;-61
2022/09/08 02:47:53;;;;;;;;;0.33;0.33;;;;;20.47;61.31;100405.94;2103927;27;47188;-62
2022/09/08 02:48:53;;;;;;;;;0.33;0.33;;;;;20.45;61.42;100405.16;2104291;28;47809;-62
2022/09/08 02:49:53;;;;;;;;;0.00;0.00;;;;;20.44;60.80;100400.72;2074972;28;47359;-61
2022/09/08 02:50:58;;;;;;;;;0.00;0.00;;;;;20.42;61.26;100400.84;2071810;28;47389;-62
2022/09/08 02:51:59;;;;;;;;;1.60;1.60;;;;;20.41;60.93;100407.16;2101471;28;47876;-62
2022/09/08 02:52:59;;;;;;;;;1.00;1.00;;;;;20.41;61.01;100406.31;2075127;28;47457;-62
2022/09/08 02:54:00;;;;;;;;;0.00;0.00;;;;;20.42;61.58;100403.53;2077200;28;47194;-62
2022/09/08 02:55:00;;;;;;;;;0.00;0.00;;;;;20.43;61.11;100399.00;2099332;28;47901;-60
2022/09/08 02:56:02;;;;;;;;;1.00;1.00;;;;;20.43;60.97;100397.19;2103188;27;47255;-62
2022/09/08 02:57:02;;;;;;;;;0.00;0.00;;;;;20.44;61.51;100398.91;2094542;28;47777;-62
2022/09/08 02:58:02;;;;;;;;;0.00;0.00;;;;;20.45;61.55;100399.75;2093870;28;47168;-62
2022/09/08 02:59:03;;;;;;;;;1.00;1.00;;;;;20.44;60.79;100398.03;2102776;27;47430;-61
2022/09/08 03:00:04;;;;;;;;;0.00;0.00;;;;;20.43;61.34;100397.19;2102788;28;47527;-62
2022/09/08 03:01:05;;;;;;;;;1.00;1.00;;;;;20.45;61.15;100389.84;2096527;27;47095;-61
2022/09/08 03:02:05;;;;;;;;;0.00;0.00;;;;;20.45;60.97;100384.47;2104655;28;47543;-61
2022/09/08 03:03:06;;;;;;;;;0.00;0.00;;;;;20.46;61.35;100380.81;2099868;28;47301;-61
2022/09/08 03:04:07;;;;;;;;;0.50;0.50;;;;;20.48;61.00;100383.41;2095776;28;47568;-63
2022/09/08 03:05:08;;;;;;;;;1.00;0.00;;;;;20.49;61.50;100387.84;2104820;28;47734;-62
2022/09/08 03:06:09;;;;;;;;;1.00;1.00;;;;;20.46;60.95;100379.97;2104940;28;47825;-61
2022/09/08 03:07:10;;;;;;;;;0.00;0.00;;;;;20.49;60.83;100382.44;2105555;27;47475;-62
2022/09/08 03:08:12;;;;;;;;;0.00;0.00;;;;;20.49;61.06;100383.31;2102579;28;48004;-61
2022/09/08 03:09:12;;;;;;;;;0.75;0.75;;;;;20.51;60.82;100383.19;2104242;27;47993;-59
2022/09/08 03:10:14;;;;;;;;;0.67;0.67;;;;;20.52;60.68;100388.47;2105582;28;47770;-61
2022/09/08 03:11:16;;;;;;;;;2.00;1.75;;;;;20.53;61.40;100381.25;2095375;28;47645;-62
2022/09/08 03:12:16;;;;;;;;;1.25;0.25;;;;;20.53;60.93;100382.13;2095975;28;48105;-60
2022/09/08 03:13:17;;;;;;;;;2.25;0.75;;;;;20.53;60.85;100384.81;2104209;28;45653;-61
2022/09/08 03:14:18;;;;;;;;;1.00;1.00;;;;;20.53;60.71;100387.50;2097260;28;47403;-61
2022/09/08 03:15:19;;;;;;;;;2.00;2.00;;;;;20.56;61.15;100391.81;2102089;28;47462;-61
2022/09/08 03:16:20;;;;;;;;;2.75;0.00;;;;;20.54;61.26;100386.53;2103151;27;47480;-61
2022/09/08 03:17:21;;;;;;;;;1.67;1.67;;;;;20.56;61.11;100387.28;2110537;27;47670;-59
2022/09/08 03:18:22;;;;;;;;;1.67;1.00;;;;;20.57;60.88;100394.41;2096586;28;47629;-62
2022/09/08 03:19:23;;;;;;;;;1.25;1.25;;;;;20.56;60.50;100392.69;2096064;28;47463;-61
2022/09/08 03:20:24;;;;;;;;;0.33;0.33;;;;;20.57;61.39;100385.44;2101436;28;47693;-62
2022/09/08 03:21:24;;;;;;;;;1.00;1.00;;;;;20.56;60.84;100386.41;2104713;28;47948;-61
2022/09/08 03:22:25;;;;;;;;;1.00;1.00;;;;;20.54;60.88;100391.94;2099991;28;47645;-62
2022/09/08 03:23:26;;;;;;;;;1.67;1.67;;;;;20.53;61.36;100384.81;2099600;27;47832;-62
2022/09/08 03:24:27;;;;;;;;;0.25;0.25;;;;;20.53;60.74;100386.63;2105254;28;47585;-62
2022/09/08 03:25:28;;;;;;;;;2.00;1.67;;;;;20.54;61.20;100385.66;2104599;28;46724;-60
2022/09/08 03:26:28;;;;;;;;;1.25;1.25;;;;;20.56;61.44;100387.28;2101748;28;47471;-62
2022/09/08 03:27:29;;;;;;;;;2.00;2.00;;;;;20.54;60.96;100382.97;2100124;27;47180;-62
2022/09/08 03:28:29;;;;;;;;;1.33;1.33;;;;;20.52;60.92;100376.81;2104603;28;47063;-62
2022/09/08 03:29:31;;;;;;;;;1.67;1.67;;;;;20.49;60.73;100380.59;2104313;28;47577;-63
2022/09/08 03:30:32;;;;;;;;;1.00;1.00;;;;;20.49;60.98;100377.03;2105505;28;47441;-62
2022/09/08 03:31:32;;;;;;;;;1.00;1.00;;;;;20.50;61.58;100376.94;2104628;28;46677;-62
2022/09/08 03:32:34;;;;;;;;;1.00;0.00;;;;;20.51;61.25;100378.66;2105028;28;47717;-61
2022/09/08 03:33:35;;;;;;;;;1.25;1.25;;;;;20.52;61.13;100375.00;2103999;28;48091;-61
2022/09/08 03:34:37;;;;;;;;;1.00;0.75;;;;;20.50;60.82;100373.38;2098630;28;48343;-62
2022/09/08 03:35:37;;;;;;;;;0.75;0.75;;;;;20.47;60.88;100370.91;2103718;27;47814;-63
2022/09/08 03:36:37;;;;;;;;;0.67;0.67;;;;;20.44;61.43;100369.25;2101101;28;47051;-64
2022/09/08 03:37:38;;;;;;;;;0.67;0.00;;;;;20.43;61.50;100375.63;2104018;28;47364;-62
2022/09/08 03:38:39;;;;;;;;;1.00;0.00;;;;;20.43;61.59;100370.22;2106623;27;47510;-63
2022/09/08 03:39:40;;;;;;;;;1.50;1.50;;;;;20.44;61.11;100371.09;2104365;27;46573;-63
2022/09/08 03:40:41;;;;;;;;;1.00;1.00;;;;;20.44;61.43;100369.25;2104553;28;46380;-61
2022/09/08 03:41:42;;;;;;;;;1.00;1.00;;;;;20.45;61.34;100365.59;2103948;27;47507;-62
2022/09/08 03:42:44;;;;;;;;;1.00;1.00;;;;;20.47;61.48;100365.50;2079090;28;47515;-63
2022/09/08 03:43:50;;;;;;;;;0.00;0.00;;;;;20.50;61.16;100365.28;2078595;28;47883;-62
2022/09/08 03:44:50;;;;;;;;;1.00;0.75;;;;;20.50;61.18;100376.94;2098814;28;48224;-62
2022/09/08 03:45:51;;;;;;;;;1.00;1.00;;;;;20.51;61.21;100372.41;2100899;27;47453;-63
2022/09/08 03:46:51;;;;;;;;;2.00;1.00;;;;;20.50;61.00;100370.69;2104017;28;47405;-61
2022/09/08 03:47:52;;;;;;;;;1.00;1.00;;;;;20.49;61.27;100377.03;2104484;28;47751;-62
2022/09/08 03:48:52;;;;;;;;;1.00;1.00;;;;;20.50;61.16;100371.53;2103211;27;47314;-62
2022/09/08 03:49:53;;;;;;;;;0.33;0.33;;;;;20.50;61.35;100368.84;2104620;27;47897;-62
2022/09/08 03:50:53;;;;;;;;;2.33;2.33;;;;;20.50;61.15;100374.25;2102782;27;47725;-62
2022/09/08 03:51:53;;;;;;;;;2.00;2.00;;;;;20.51;61.45;100375.09;2104714;28;48005;-61
2022/09/08 03:52:54;;;;;;;;;2.00;2.00;;;;;20.49;61.04;100374.34;2101566;28;47156;-62
2022/09/08 03:54:46;;;;;;;;;1.00;1.00;;;;;20.46;61.38;100375.44;2098790;28;47279;-62
2022/09/08 03:55:18;;;;;;;;;2.00;1.00;;;;;20.45;61.02;100375.50;2101198;28;47607;-61
2022/09/08 03:56:20;;;;;;;;;1.25;1.25;;;;;20.44;61.11;100379.16;2103690;27;47886;-62
2022/09/08 03:57:24;;;;;;;;;1.75;1.75;;;;;20.44;61.50;100379.16;2103042;27;47514;-61
2022/09/08 03:58:24;;;;;;;;;2.75;2.25;;;;;20.44;61.68;100380.03;2103512;27;47935;-62
2022/09/08 03:59:25;;;;;;;;;1.33;1.33;;;;;20.43;61.70;100370.22;2104264;28;47485;-61
2022/09/08 04:00:27;;;;;;;;;2.00;2.00;;;;;20.43;61.61;100378.31;2103462;27;47470;-62
2022/09/08 04:01:28;;;;;;;;;0.75;0.50;;;;;20.41;61.16;100366.75;2098256;28;47410;-61
2022/09/08 04:02:30;;;;;;;;;1.00;1.00;;;;;20.40;61.60;100362.31;2101803;27;47401;-63
2022/09/08 04:03:31;;;;;;;;;1.75;1.75;;;;;20.39;61.43;100365.13;2108460;27;48044;-63
2022/09/08 04:04:31;;;;;;;;;1.33;1.33;;;;;20.39;61.29;100371.38;2103512;27;47374;-62
2022/09/08 04:05:31;;;;;;;;;1.33;1.33;;;;;20.38;60.94;100369.66;2102843;28;47495;-62
2022/09/08 04:06:32;;;;;;;;;1.67;1.67;;;;;20.37;61.11;100365.22;2103432;27;47878;-61
2022/09/08 04:07:34;;;;;;;;;1.00;1.00;;;;;20.35;61.68;100372.56;2101310;28;47228;-61
2022/09/08 04:08:35;;;;;;;;;3.60;2.60;;;;;20.33;61.40;100369.13;2098236;28;48101;-62
2022/09/08 04:09:37;;;;;;;;;1.00;1.00;;;;;20.30;61.54;100366.59;2104540;28;47960;-60
2022/09/08 04:10:41;;;;;;;;;3.00;2.00;;;;;20.30;61.56;100363.91;2086061;28;47444;-62
2022/09/08 04:11:42;;;;;;;;;2.25;2.00;;;;;20.31;61.25;100378.25;2087335;28;47683;-62
2022/09/08 04:12:43;;;;;;;;;1.00;1.00;;;;;20.29;61.65;100368.44;2103091;27;47938;-61
2022/09/08 04:13:43;;;;;;;;;1.00;1.00;;;;;20.31;61.81;100372.84;2088821;28;47756;-62
2022/09/08 04:14:48;;;;;;;;;2.33;2.00;;;;;20.30;61.17;100372.00;2094540;28;48692;-61
2022/09/08 04:15:48;;;;;;;;;2.50;2.50;;;;;20.31;61.07;100372.84;2095670;28;47359;-62
2022/09/08 04:16:49;;;;;;;;;2.33;2.00;;;;;20.32;61.38;100370.06;2094135;28;47279;-62
2022/09/08 04:17:49;;;;;;;;;1.00;1.00;;;;;20.35;61.37;100369.88;2103105;28;47881;-61
2022/09/08 04:18:50;;;;;;;;;2.00;2.00;;;;;20.36;61.46;100379.69;2100946;28;47850;-61
2022/09/08 04:19:51;;;;;;;;;2.00;2.00;;;;;20.37;61.32;100373.31;2096244;28;47685;-61
2022/09/08 04:21:10;;;;;;;;;2.00;2.00;;;;;20.39;61.24;100366.00;2102876;27;47780;-62
2022/09/08 04:22:11;;;;;;;;;2.40;2.00;;;;;20.40;61.20;100366.84;2103250;27;47653;-60
2022/09/08 04:23:11;;;;;;;;;2.75;2.00;;;;;20.40;61.63;100366.84;2100631;28;47623;-62
2022/09/08 04:24:12;;;;;;;;;3.00;3.00;;;;;20.40;61.19;100367.72;2077686;28;47465;-61
2022/09/08 04:25:13;;;;;;;;;3.00;2.00;;;;;20.40;61.36;100362.31;2077698;28;47487;-61
2022/09/08 04:26:14;;;;;;;;;2.80;2.80;;;;;20.40;61.40;100356.94;2103398;27;47654;-62
2022/09/08 04:27:15;;;;;;;;;3.00;1.80;;;;;20.43;61.56;100361.28;2104409;28;47971;-61
2022/09/08 04:28:16;;;;;;;;;2.25;2.25;;;;;20.44;61.11;100361.16;2103876;27;48030;-60
2022/09/08 04:29:16;;;;;;;;;1.50;1.50;;;;;20.45;61.36;100364.72;2104988;27;47448;-63
2022/09/08 04:30:17;;;;;;;;;5.50;5.50;;;;;20.46;61.27;100366.47;2094405;28;47777;-60
2022/09/08 04:31:18;;;;;;;;;3.33;3.33;;;;;20.46;61.19;100364.66;2091309;28;47944;-59
2022/09/08 04:32:19;;;;;;;;;3.00;3.00;;;;;20.46;61.63;100361.09;2083240;28;47567;-60
2022/09/08 04:33:20;;;;;;;;;4.25;4.25;;;;;20.43;60.97;100359.44;2078854;28;47614;-59
2022/09/08 04:34:20;;;;;;;;;3.00;2.00;;;;;20.42;61.48;100363.09;2092853;28;47696;-61
2022/09/08 04:35:21;;;;;;;;;4.00;3.67;;;;;20.43;61.59;100364.84;2089855;28;47390;-62
2022/09/08 04:36:22;;;;;;;;;5.00;4.50;;;;;20.44;61.73;100363.88;2078003;28;45788;-61
2022/09/08 04:37:22;;;;;;;;;4.00;4.00;;;;;20.44;61.53;100360.31;2076831;28;47863;-61
2022/09/08 04:38:23;;;;;;;;;4.67;3.33;;;;;20.44;61.28;100355.78;2069862;28;47038;-62
2022/09/08 04:39:24;;;;;;;;;2.33;2.00;;;;;20.44;61.68;100354.91;2070797;28;47490;-62
2022/09/08 04:40:24;;;;;;;;;4.00;4.00;;;;;20.43;61.71;100351.34;2077936;28;47196;-61
2022/09/08 04:41:27;;;;;;;;;4.67;3.67;;;;;20.42;61.28;100362.25;2078656;28;47721;-61
2022/09/08 04:42:28;;;;;;;;;3.00;3.00;;;;;20.42;61.19;100363.09;2077894;28;47469;-62
2022/09/08 04:43:28;;;;;;;;;4.00;4.00;;;;;20.41;61.56;100357.78;2066073;28;47492;-60
2022/09/08 04:44:29;;;;;;;;;5.00;4.00;;;;;20.41;61.65;100363.19;2069738;28;47044;-63
2022/09/08 04:45:29;;;;;;;;;2.33;2.33;;;;;20.40;61.84;100359.63;2078455;28;47577;-61
2022/09/08 04:46:31;;;;;;;;;4.33;3.33;;;;;20.41;61.82;100353.25;2078051;28;47770;-61
2022/09/08 04:47:32;;;;;;;;;2.75;2.75;;;;;20.42;61.56;100368.50;2079164;28;47496;-60
2022/09/08 04:48:33;;;;;;;;;3.00;1.00;;;;;20.44;61.24;100368.38;2078175;28;48046;-62
2022/09/08 04:49:34;;;;;;;;;2.00;2.00;;;;;20.44;61.08;100353.06;2078839;28;48000;-61
2022/09/08 04:50:34;;;;;;;;;6.67;3.00;;;;;20.44;61.06;100358.47;2078107;28;47689;-62
2022/09/08 04:51:34;;;;;;;;;5.00;4.00;;;;;20.44;61.38;100363.00;2078910;28;47068;-62
2022/09/08 04:52:35;;;;;;;;;4.67;3.00;;;;;20.43;61.60;100356.75;2078193;28;47709;-62
2022/09/08 04:53:36;;;;;;;;;5.67;3.00;;;;;20.43;61.56;100359.44;2078896;28;47192;-61